Holyrood, Canada
Current Conditions -  °F | °C
As of 9:16 PM on Saturday 25 Oct 2014 (Local Time) from CYYT Reporting Station
Light Rain Light Rain  
Wind Chill: 40°   Ceiling: 200
Heat Index: 46°   Visibility: 0.37mi
Dew Point: 46°   Wind: 14mph
Humidity: 100%   Direction: 40°NE
Pressure: 29.37"   Gusts: 20mph
Location:  47.38°N, 53.13°W
Report Text: CYYT 252316Z 04012G17KT 3/8SM R11/2600VP6000FT/U -RA FG VV002 08/08 A2937 RMK FG8 SLP949
Loading
Personal Weather Stations






























Interactive Weather Map
Tropical Storm Tracking
New forecast layout! Learn more

10-Day Weather Forecast

Advertisements
Track Severe Weather on mobile